createdAt,value
2023-01-17T00:01:35.491Z,5.25
2023-01-17T00:04:54.095Z,5.29
2023-01-17T00:08:15.614Z,5.30
2023-01-17T00:11:21.694Z,5.30
2023-01-17T00:14:31.039Z,5.35
2023-01-17T00:17:36.956Z,5.45
2023-01-17T00:20:55.963Z,5.47
2023-01-17T00:24:14.340Z,5.55
2023-01-17T00:27:18.011Z,5.61
2023-01-17T00:30:24.502Z,5.65
2023-01-17T00:33:29.189Z,5.73
2023-01-17T00:36:32.149Z,5.70
2023-01-17T00:39:35.865Z,5.72
2023-01-17T00:42:38.806Z,5.69
2023-01-17T00:46:02.647Z,5.76
2023-01-17T00:49:22.040Z,5.82
2023-01-17T00:52:40.922Z,5.85
2023-01-17T00:55:59.033Z,5.92
2023-01-17T00:59:17.974Z,5.97
2023-01-17T01:02:40.255Z,6.05
2023-01-17T01:05:59.205Z,6.00
2023-01-17T01:09:17.370Z,5.92
2023-01-17T01:12:36.351Z,5.74
2023-01-17T01:15:54.583Z,5.81
2023-01-17T01:19:16.224Z,5.71
2023-01-17T01:22:34.620Z,5.53
2023-01-17T01:25:53.605Z,5.54
2023-01-17T01:29:11.820Z,5.51
2023-01-17T01:32:30.730Z,5.44
2023-01-17T01:35:42.059Z,5.41
2023-01-17T01:38:50.449Z,5.46
2023-01-17T01:41:56.377Z,5.40
2023-01-17T01:45:02.880Z,5.32
2023-01-17T01:48:26.410Z,5.23
2023-01-17T01:51:44.625Z,5.18
2023-01-17T01:55:00.620Z,5.22
2023-01-17T01:58:16.449Z,5.31
2023-01-17T02:01:22.829Z,5.38
2023-01-17T02:04:32.262Z,5.34
2023-01-17T02:07:53.930Z,5.28
2023-01-17T02:11:00.489Z,5.25
2023-01-17T02:14:06.483Z,5.24
2023-01-17T02:17:33.114Z,5.12
2023-01-17T02:21:09.094Z,5.04
2023-01-17T02:25:05.674Z,5.06
2023-01-17T02:28:45.398Z,5.00
2023-01-17T02:32:05.936Z,4.89
2023-01-17T02:35:25.771Z,4.74
2023-01-17T02:38:47.324Z,4.56
2023-01-17T02:42:03.306Z,4.52
2023-01-17T02:45:11.993Z,4.38
2023-01-17T02:48:31.252Z,4.24
2023-01-17T02:52:06.252Z,4.14
2023-01-17T02:55:34.267Z,3.92
2023-01-17T02:59:17.593Z,3.85
2023-01-17T03:02:43.585Z,3.86
2023-01-17T03:06:03.793Z,3.79
2023-01-17T03:09:12.049Z,3.70
2023-01-17T03:12:18.964Z,3.69
2023-01-17T03:15:25.239Z,3.51
2023-01-17T03:18:32.918Z,3.19
2023-01-17T03:21:41.435Z,3.18
2023-01-17T03:24:48.245Z,3.41
2023-01-17T03:27:54.307Z,3.41
2023-01-17T03:31:00.942Z,3.22
2023-01-17T03:34:07.088Z,3.21
2023-01-17T03:37:16.528Z,3.26
2023-01-17T03:40:22.659Z,3.26
2023-01-17T03:43:29.238Z,3.35
2023-01-17T03:46:36.551Z,3.20
2023-01-17T03:49:43.603Z,3.13
2023-01-17T03:52:52.014Z,3.18
2023-01-17T03:55:58.898Z,3.26
2023-01-17T03:59:05.232Z,3.37
2023-01-17T04:02:12.010Z,3.29
2023-01-17T04:05:18.185Z,3.24
2023-01-17T04:08:28.503Z,3.35
2023-01-17T04:11:34.427Z,3.44
2023-01-17T04:14:41.336Z,3.50
2023-01-17T04:17:47.708Z,3.57
2023-01-17T04:20:56.527Z,3.59
2023-01-17T04:24:04.976Z,3.65
2023-01-17T04:27:14.417Z,3.64
2023-01-17T04:30:20.464Z,3.67
2023-01-17T04:33:27.138Z,3.73
2023-01-17T04:36:33.115Z,3.72
2023-01-17T04:39:42.842Z,3.78
2023-01-17T04:42:49.008Z,3.80
2023-01-17T04:45:58.992Z,3.83
2023-01-17T04:49:04.968Z,3.92
2023-01-17T04:52:11.900Z,3.89
2023-01-17T04:55:20.742Z,3.92
2023-01-17T04:58:28.069Z,3.87
2023-01-17T05:01:34.599Z,3.86
2023-01-17T05:04:42.011Z,3.88
2023-01-17T05:07:47.890Z,3.87
2023-01-17T05:10:57.395Z,3.86
2023-01-17T05:14:03.324Z,3.78
2023-01-17T05:17:11.386Z,3.72
2023-01-17T05:20:17.431Z,3.75
2023-01-17T05:23:25.375Z,3.80
2023-01-17T05:26:33.819Z,3.78
2023-01-17T05:29:40.756Z,3.85
2023-01-17T05:32:52.327Z,3.90
2023-01-17T05:35:59.128Z,3.87
2023-01-17T05:39:05.013Z,3.88
2023-01-17T05:42:14.297Z,3.94
2023-01-17T05:45:22.759Z,3.89
2023-01-17T05:48:29.342Z,3.82
2023-01-17T05:51:37.905Z,3.74
2023-01-17T05:54:44.475Z,3.68
2023-01-17T05:57:53.177Z,3.70
2023-01-17T06:00:59.904Z,3.73
2023-01-17T06:04:05.801Z,3.69
2023-01-17T06:07:12.398Z,3.75
2023-01-17T06:10:21.210Z,3.80
2023-01-17T06:13:30.395Z,3.76
2023-01-17T06:16:36.395Z,3.78
2023-01-17T06:19:43.001Z,3.85
2023-01-17T06:22:49.180Z,3.87
2023-01-17T06:25:56.424Z,3.88
2023-01-17T06:29:05.021Z,3.83
2023-01-17T06:32:13.421Z,3.75
2023-01-17T06:35:19.827Z,3.77
2023-01-17T06:38:27.449Z,3.85
2023-01-17T06:41:33.655Z,3.91
2023-01-17T06:44:43.194Z,3.95
2023-01-17T06:47:49.376Z,3.94
2023-01-17T06:50:56.162Z,3.93
2023-01-17T06:54:02.230Z,3.87
2023-01-17T06:57:08.722Z,3.80
2023-01-17T07:00:19.371Z,3.76
2023-01-17T07:03:29.816Z,3.70
2023-01-17T07:06:35.715Z,3.83
2023-01-17T07:09:55.271Z,3.81
2023-01-17T07:13:04.309Z,3.65
2023-01-17T07:16:13.879Z,3.72
2023-01-17T07:19:19.851Z,3.64
2023-01-17T07:22:26.919Z,3.75
2023-01-17T07:29:31.334Z,3.63
2023-01-17T07:36:32.815Z,3.08
2023-01-17T07:43:29.790Z,2.83
2023-01-17T07:46:36.683Z,2.81
2023-01-17T07:49:43.178Z,3.24
2023-01-17T07:52:56.579Z,3.24
2023-01-17T07:56:07.638Z,3.21
2023-01-17T07:59:14.791Z,3.23
2023-01-17T08:02:25.222Z,2.78
2023-01-17T08:09:37.358Z,3.20
2023-01-17T08:12:44.647Z,3.12
2023-01-17T08:15:52.322Z,3.17
2023-01-17T08:19:00.327Z,3.22
2023-01-17T08:22:08.732Z,3.29
2023-01-17T08:25:18.823Z,3.28
2023-01-17T08:28:31.211Z,3.57
2023-01-17T08:31:39.787Z,3.49
2023-01-17T08:34:46.810Z,3.64
2023-01-17T08:38:00.115Z,3.20
2023-01-17T08:41:09.204Z,3.40
2023-01-17T08:44:20.461Z,3.72
2023-01-17T08:47:28.190Z,3.37
2023-01-17T08:50:34.959Z,3.56
2023-01-17T08:53:42.806Z,3.63
2023-01-17T08:56:52.998Z,3.47
2023-01-17T08:59:59.306Z,3.64
2023-01-17T09:03:13.269Z,3.84
2023-01-17T09:06:20.742Z,4.05
2023-01-17T09:09:27.537Z,4.00
2023-01-17T09:12:39.093Z,4.21
2023-01-17T09:15:45.724Z,4.29
2023-01-17T09:18:51.612Z,4.16
2023-01-17T09:21:58.256Z,4.22
2023-01-17T09:25:04.172Z,4.19
2023-01-17T09:28:13.714Z,4.34
2023-01-17T09:31:21.518Z,4.42
2023-01-17T09:34:28.110Z,4.59
2023-01-17T09:37:33.919Z,4.60
2023-01-17T09:40:47.332Z,4.41
2023-01-17T09:44:05.938Z,4.64
2023-01-17T09:47:31.443Z,4.75
2023-01-17T09:50:49.506Z,4.80
2023-01-17T09:53:58.393Z,4.77
2023-01-17T09:57:18.524Z,4.92
2023-01-17T10:00:55.494Z,5.09
2023-01-17T10:04:29.280Z,5.18
2023-01-17T10:07:57.516Z,5.46
2023-01-17T10:11:34.060Z,5.89
2023-01-17T10:15:03.162Z,6.05
2023-01-17T10:18:57.211Z,6.07
2023-01-17T10:22:36.441Z,6.01
2023-01-17T10:25:50.722Z,6.03
2023-01-17T10:29:05.529Z,6.22
2023-01-17T10:32:17.612Z,6.70
2023-01-17T10:35:36.274Z,7.29
2023-01-17T10:38:44.223Z,7.98
2023-01-17T10:41:58.970Z,8.48
2023-01-17T10:45:18.653Z,8.78
2023-01-17T10:48:43.056Z,9.03
2023-01-17T10:52:08.649Z,9.36
2023-01-17T10:55:40.278Z,9.45
2023-01-17T10:58:48.304Z,9.46
2023-01-17T11:01:55.128Z,9.95
2023-01-17T11:05:17.942Z,10.88
2023-01-17T11:08:27.112Z,11.48
2023-01-17T11:11:38.225Z,12.09
2023-01-17T11:15:02.800Z,12.55
2023-01-17T11:18:19.119Z,12.94
2023-01-17T11:21:28.521Z,12.99
2023-01-17T11:24:45.426Z,13.26
2023-01-17T11:28:04.398Z,13.57
2023-01-17T11:31:29.839Z,13.89
2023-01-17T11:34:36.679Z,14.57
2023-01-17T11:37:49.956Z,15.11
2023-01-17T11:41:19.262Z,15.05
2023-01-17T11:44:29.703Z,15.23
2023-01-17T11:47:36.385Z,15.44
2023-01-17T11:50:47.371Z,15.89
2023-01-17T11:53:55.972Z,16.00
2023-01-17T11:57:05.815Z,15.96
2023-01-17T12:00:27.866Z,15.84
2023-01-17T12:04:02.656Z,15.66
2023-01-17T12:07:27.580Z,14.95
2023-01-17T12:10:49.479Z,15.11
2023-01-17T12:14:19.526Z,15.27
2023-01-17T12:17:57.441Z,15.18
2023-01-17T12:21:22.996Z,15.02
2023-01-17T12:25:04.182Z,14.36
2023-01-17T12:28:52.358Z,13.24
2023-01-17T12:32:30.505Z,12.26
2023-01-17T12:35:48.331Z,11.39
2023-01-17T12:38:56.723Z,10.63
2023-01-17T12:42:15.986Z,10.04
2023-01-17T12:45:32.687Z,9.41
2023-01-17T12:48:42.305Z,9.04
2023-01-17T12:51:55.987Z,8.78
2023-01-17T12:55:13.833Z,8.59
2023-01-17T12:58:35.047Z,8.39
2023-01-17T13:01:43.395Z,8.10
2023-01-17T13:05:03.179Z,7.93
2023-01-17T13:08:28.198Z,7.84
2023-01-17T13:11:46.728Z,7.82
2023-01-17T13:14:53.871Z,7.79
2023-01-17T13:18:13.491Z,7.70
2023-01-17T13:21:35.460Z,7.79
2023-01-17T13:24:55.560Z,7.83
2023-01-17T13:28:33.350Z,7.79
2023-01-17T13:31:51.839Z,7.63
2023-01-17T13:35:22.211Z,7.61
2023-01-17T13:39:16.119Z,7.57
2023-01-17T13:42:43.690Z,7.53
2023-01-17T13:45:57.793Z,7.48
2023-01-17T13:49:36.349Z,7.41
2023-01-17T13:52:42.329Z,7.24
2023-01-17T13:55:55.811Z,7.22
2023-01-17T13:59:36.081Z,7.30
2023-01-17T14:02:42.828Z,7.34
2023-01-17T14:06:00.137Z,7.34
2023-01-17T14:09:19.888Z,7.37
2023-01-17T14:12:36.231Z,7.35
2023-01-17T14:15:53.901Z,7.31
2023-01-17T14:19:00.293Z,7.39
2023-01-17T14:22:28.496Z,7.33
2023-01-17T14:25:44.014Z,7.35
2023-01-17T14:28:55.430Z,7.33
2023-01-17T14:32:11.829Z,7.19
2023-01-17T14:35:26.610Z,7.15
2023-01-17T14:38:43.928Z,7.07
2023-01-17T14:41:50.736Z,7.04
2023-01-17T14:45:07.181Z,6.95
2023-01-17T14:48:21.739Z,6.95
2023-01-17T14:51:28.400Z,6.95
2023-01-17T14:54:37.044Z,6.88
2023-01-17T14:57:45.980Z,6.89
2023-01-17T15:01:01.839Z,6.90
2023-01-17T15:04:07.940Z,6.84
2023-01-17T15:07:20.586Z,6.75
2023-01-17T15:10:33.286Z,6.71
2023-01-17T15:13:45.977Z,6.81
2023-01-17T15:16:54.496Z,6.88
2023-01-17T15:20:11.419Z,6.86
2023-01-17T15:23:23.235Z,6.71
2023-01-17T15:26:36.113Z,6.42
2023-01-17T15:29:44.803Z,6.14
2023-01-17T15:32:55.055Z,6.01
2023-01-17T15:36:07.176Z,5.95
2023-01-17T15:39:27.102Z,5.88
2023-01-17T15:42:37.164Z,5.70
2023-01-17T15:45:44.079Z,5.61
2023-01-17T15:48:53.432Z,5.69
2023-01-17T15:52:18.442Z,5.78
2023-01-17T15:55:29.004Z,5.94
2023-01-17T15:58:35.567Z,6.06
2023-01-17T16:01:41.589Z,6.11
2023-01-17T16:04:50.860Z,6.15
2023-01-17T16:08:00.366Z,6.12
2023-01-17T16:11:09.589Z,5.90
2023-01-17T16:14:15.336Z,5.66
2023-01-17T16:17:22.404Z,5.54
2023-01-17T16:20:39.865Z,5.50
2023-01-17T16:23:46.465Z,5.42
2023-01-17T16:26:52.287Z,5.16
2023-01-17T16:29:59.462Z,4.93
2023-01-17T16:33:07.599Z,4.80
2023-01-17T16:36:20.951Z,4.73
2023-01-17T16:39:27.481Z,4.59
2023-01-17T16:42:34.374Z,4.55
2023-01-17T16:45:45.208Z,4.59
2023-01-17T16:48:51.991Z,4.50
2023-01-17T16:52:00.418Z,4.60
2023-01-17T16:55:08.291Z,4.80
2023-01-17T16:58:15.429Z,4.92
2023-01-17T17:05:14.194Z,4.85
2023-01-17T17:08:23.359Z,4.90
2023-01-17T17:15:21.731Z,4.72
2023-01-17T17:18:28.456Z,4.64
2023-01-17T17:21:39.753Z,4.49
2023-01-17T17:28:55.502Z,4.25
2023-01-17T17:32:02.040Z,4.49
2023-01-17T17:35:20.405Z,4.46
2023-01-17T17:46:14.009Z,4.34
2023-01-17T17:49:23.096Z,4.57
2023-01-17T17:52:32.481Z,4.45
2023-01-17T17:55:51.987Z,4.70
2023-01-17T17:58:59.578Z,4.58
2023-01-17T18:02:11.256Z,4.82
2023-01-17T18:29:55.938Z,4.40
2023-01-17T18:33:02.560Z,4.36
2023-01-17T18:36:10.349Z,4.41
2023-01-17T18:39:20.551Z,4.43
2023-01-17T18:42:27.628Z,4.43
2023-01-17T18:45:36.993Z,4.41
2023-01-17T18:48:43.881Z,4.37
2023-01-17T18:51:51.986Z,4.43
2023-01-17T18:54:58.126Z,4.49
2023-01-17T18:58:06.009Z,4.58
2023-01-17T19:01:19.993Z,4.69
2023-01-17T19:04:28.578Z,4.78
2023-01-17T19:07:34.527Z,4.73
2023-01-17T19:10:41.258Z,4.80
2023-01-17T19:13:50.451Z,4.77
2023-01-17T19:17:01.518Z,4.83
2023-01-17T19:20:09.154Z,4.77
2023-01-17T19:23:17.153Z,4.66
2023-01-17T19:26:25.223Z,4.70
2023-01-17T19:29:31.977Z,4.67
2023-01-17T19:32:40.414Z,4.60
2023-01-17T19:35:47.278Z,4.57
2023-01-17T19:39:05.585Z,4.55
2023-01-17T19:42:15.691Z,4.54
2023-01-17T19:45:21.894Z,4.50
2023-01-17T19:48:31.847Z,4.60
2023-01-17T19:51:39.450Z,4.65
2023-01-17T19:54:46.088Z,4.74
2023-01-17T19:57:52.084Z,4.66
2023-01-17T20:01:09.968Z,4.71
2023-01-17T20:04:19.441Z,4.78
2023-01-17T20:07:26.415Z,4.75
2023-01-17T20:10:32.688Z,4.77
2023-01-17T20:13:40.347Z,4.75
2023-01-17T20:16:48.844Z,4.74
2023-01-17T20:19:59.361Z,4.68
2023-01-17T20:23:06.497Z,4.59
2023-01-17T20:26:17.733Z,4.55
2023-01-17T20:29:26.005Z,4.50
2023-01-17T20:32:32.703Z,4.55
2023-01-17T20:35:41.124Z,4.55
2023-01-17T20:38:50.001Z,4.64
2023-01-17T20:41:56.141Z,4.79
2023-01-17T20:45:03.275Z,4.75
2023-01-17T20:48:09.606Z,4.72
2023-01-17T20:51:20.465Z,4.60
2023-01-17T20:54:26.807Z,4.55
2023-01-17T20:57:34.561Z,4.53
2023-01-17T21:00:40.535Z,4.53
2023-01-17T21:03:48.046Z,4.54
2023-01-17T21:06:57.650Z,4.57
2023-01-17T21:10:04.283Z,4.66
2023-01-17T21:13:10.201Z,4.75
2023-01-17T21:16:20.493Z,4.83
2023-01-17T21:19:26.457Z,4.80
2023-01-17T21:22:35.747Z,4.70
2023-01-17T21:25:43.460Z,4.76
2023-01-17T21:28:52.585Z,4.72
2023-01-17T21:31:58.903Z,4.76
2023-01-17T21:35:05.558Z,4.77
2023-01-17T21:38:14.038Z,4.77
2023-01-17T21:41:21.393Z,4.76
2023-01-17T21:44:27.580Z,4.69
2023-01-17T21:47:35.599Z,4.75
2023-01-17T21:50:42.143Z,4.77
2023-01-17T21:53:51.799Z,4.78
2023-01-17T21:57:21.723Z,4.75
2023-01-17T22:00:28.305Z,4.80
2023-01-17T22:03:34.244Z,4.86
2023-01-17T22:06:41.254Z,4.89
2023-01-17T22:09:49.638Z,4.86
2023-01-17T22:12:56.598Z,4.84
2023-01-17T22:16:05.499Z,4.79
2023-01-17T22:19:12.283Z,4.80
2023-01-17T22:22:18.155Z,4.89
2023-01-17T22:25:27.475Z,4.97
2023-01-17T22:28:34.656Z,5.00
2023-01-17T22:31:41.438Z,5.09
2023-01-17T22:34:47.294Z,5.19
2023-01-17T22:37:56.718Z,5.16
2023-01-17T22:41:13.218Z,5.19
2023-01-17T22:44:19.756Z,5.09
2023-01-17T22:47:25.674Z,5.08
2023-01-17T22:50:32.254Z,5.14
2023-01-17T22:53:42.347Z,5.21
2023-01-17T22:56:51.671Z,5.23
2023-01-17T22:59:58.231Z,5.25
2023-01-17T23:03:06.467Z,5.24
2023-01-17T23:06:16.876Z,5.19
2023-01-17T23:09:24.322Z,5.23
2023-01-17T23:12:32.788Z,5.15
2023-01-17T23:15:53.527Z,5.08
2023-01-17T23:19:11.724Z,5.10
2023-01-17T23:22:24.300Z,5.20
2023-01-17T23:25:30.082Z,5.34
2023-01-17T23:28:36.717Z,5.47
2023-01-17T23:31:43.755Z,5.57
2023-01-17T23:34:50.683Z,5.60
2023-01-17T23:38:08.982Z,5.63
2023-01-17T23:41:27.977Z,5.70
2023-01-17T23:44:36.404Z,5.74
2023-01-17T23:47:42.994Z,5.80
2023-01-17T23:50:51.378Z,5.84
2023-01-17T23:54:05.496Z,5.89
2023-01-17T23:57:11.606Z,5.88
